Dauntless Aviation
Airports North America United States Ohio
I19

GREENE COUNTY-LEWIS A JACKSON RGNL AIRPORT

DAYTON, OH, USA

Airport Info
Suggest Updated Information for this Airport

Location

Latitude / Longitude: 39°41'26"N / 83°59'34"W
  39°41.4433'N / 83°59.5667'W
  39.6907 / -83.9928
Elevation: 948.5 ft. (surveyed)
Variation: 05W (1995)
From city: 10 miles E of DAYTON, OH

Operations

Facility use: Open to the public
Sectional chart: CINCINNATI
Control tower: no
Boundary ARTCC: INDIANAPOLIS
Responsible ARTCC: INDIANAPOLIS
FSS: DAYTON [1-800-WX-BRIEF]
NOTAMs facility: DAY (NOTAM-D service available)
Segmented circle: no
Lights: SEE RMK
Beacon: CLEAR-GREEN (LIGHTED LAND AIRPORT)
Landing fee: no

Communications

UNICOM: 122.700
CTAF: 122.700

Nearby radio navigation aids

VOR radial/distance VOR name Freq Var
SGH 218oT/11.1 SPRINGFIELD VOR/DME 113.20 04W
MXQ 331oT/18.0 MIDWEST VOR/DME 112.90 04W
DQN 136oT/27.0 DAYTON VOR/DME 114.50 01W
ROD 176oT/35.9 ROSEWOOD VORTAC 117.50 05W
RID 95oT/39.3 RICHMOND VORTAC 110.60 03W
 
NDB name Hdg/Dist Freq Var ID
XENIA 243oT/3.3 395 03W XEN
CLARK COUNTY 222oT/14.8 341 04W CCJ
AIRBO 315oT/16.8 407 04W IL
CUBLA 345oT/21.0 299 04W HW
HOOK FIELD 61oT/24.0 239 04W HKF
COURT HOUSE 281oT/28.3 414 05W CSS
LONDON 239oT/28.3 263 06W UYF
CINCINNATI-BLUE ASH 35oT/32.3 388 04W ISZ
MADEIRA 31oT/32.7 379 04W MDE
HAMILTON 54oT/32.9 260 04W HAO
CINCINNATI 27oT/35.8 335 04W LUK
HILLSBORO 326oT/36.9 278 05W HOC
BOUTN 258oT/37.2 230 05W BU
OXFORD 73oT/38.1 282 04W OXD
SPORTYS 16oT/38.3 245 04W PWF
VERSAILLES 142oT/39.4 356 04W VES

Services

Fuel available: 100LLA+
Airframe service: MAJOR
Powerplant service: MAJOR

Runway Information

Runway 07/25

Dimensions: 5004 x 75 ft.
Surface: ASPHALT OR BITUMINOUS CONCRETE,EXCELLENT CONDITION,NO SPECIAL SURFACE TREATMENT
Edge lights: LOW
 
Runway 07
Runway 25
Latitude: 39-41-15.3805N 39-41-37.7687N
Longitude: 084-00-02.5685W 083-59-05.5004W
Elevation: 909.5 ft. 948.5 ft.
Traffic pattern: left left
Runway true heading: 063 243
Markings: nonprecision instrument, in good condition nonprecision instrument, in good condition
Visual slope indicator: 2-LGT PAPI ON LEFT SIDE OF RUNWAY (3.50 degrees glide path) 2-LGT PAPI ON LEFT SIDE OF RUNWAY (3.50 degrees glide path)
Runway end identifier lights: yes yes
Centerline lights: no no
Touchdown lights: no no
 

Operational Statistics

Annual operations: 42900
Local: 39000
Itinerant: 3900

Additional Remarks

  • BIRDS & DEER ON & INVOF ARPT.
  • COLUMBUS APCH CTL TEL# 614-338-8537.
  • EXTENSIVE FLIGHT TRAINING ACT.

Instrument Procedures

Effective Aug 15, 2019 to Sep 11, 2019

IAPs (Instrument Approach Procedures)

   RNAV (GPS) RWY 07 (PDF)
   RNAV (GPS) RWY 25 (PDF)
   TAKEOFF MINIMUMS (PDF)
 
    Legends & General Information
    Airport Diagram Legend
Topographic chart at:
Satellite photo at:
Airport distance calculator
From:
Weather Reports

METAR

KI19
0.7nm N
KI19 180056Z AUTO 00000KT 10SM CLR 25/21 A2996 RMK AO2 T02500211
KFFO
7.8nm NW
KFFO 180056Z AUTO 16004KT 10SM CLR 26/21 A2993 RMK AO2 SLP132 T02590211
KSGH
11.3nm N
KSGH 180056Z AUTO 16005KT 10SM CLR 24/22 A2995 RMK AO2 SLP137 T02440222
KMGY
12.4nm SW
KMGY 180053Z AUTO 16004KT 10SM CLR 26/21 A2994 RMK AO2 SLP129 T02610211
KDAY
16.3nm NW
KDAY 180056Z 19006KT 10SM FEW140 SCT170 27/20 A2995 RMK AO2 SLP132 T02670200
KILN
17.8nm SE
KILN 180054Z AUTO 16004KT 10SM CLR 25/21 A2995 RMK AO2 SLP133 T02500211

TAF

KFFO
7.8nm NW
TAF KFFO 171900Z 1719/1901 23012KT 9999 VCSH FEW040 BKN070 QNH2999INS BECMG 1722/1723 18006KT 9999 NSW SCT050 BKN120 QNH2998INS BECMG 1800/1801 18006KT 9999 BKN130 QNH2999INS TEMPO 1805/1807 9000 -SHRA BKN025 BECMG 1814/1815 20010G15KT 9999 SKC QNH2998INS BECMG 1819/1820 21010G15KT 9999 FEW070 BKN180 QNH2996INS BECMG 1822/1823 18006KT 9999 SKC QNH2996INS TX34/1818Z TN23/1809Z
KDAY
16.3nm NW
KDAY 172320Z 1800/1824 19007KT P6SM BKN120 FM180600 21007KT P6SM VCSH BKN080 FM180800 21007KT P6SM SCT100 BKN250 FM181600 21010KT P6SM SCT060
KILN
17.8nm SE
KILN 172320Z 1800/1824 20006KT P6SM SCT120 BKN250 FM181600 21010KT P6SM SCT060
Safelog

 

Dauntless Aviation

© 2007-2019 Dauntless Aviation, all rights reserved
Information provided via PilotNav comes from a variety of official and unofficial data sources. As errors are possible, do not use PilotNav for primary flight planning purposes. Verify any information that you receive via PilotNav with current and canonical charts and other official documents. The material in this database is subject to database copyrights held by Dauntless Aviation and may not be copied without the express permission of Dauntless Aviation - licenses for use of part of all of this data are available for purchase; enquire via the Dauntless Aviation helpdesk. A number of mechanisms and markers exist in the database to protect against and identify infringement / copyright. Automated queries against this website are stictly prohibited, and all activity is logged and analyzed.